Cudworth, Canada
Current Conditions -  °F | °C
As of 10:00 PM on Thursday 30 Oct 2014 (Local Time) from CYXE Reporting Station
Broken Clouds Broken Clouds  
Wind Chill: 17°   Ceiling: 1200
Heat Index: 28°   Visibility: 15mi
Dew Point: 25°   Wind: 15mph
Humidity: 86%   Direction: 160°SSE
Pressure: 30.36"   Gusts: 21mph
Location:  52.48°N, 105.72°W
Report Text: CYXE 310400Z 16013G18KT 15SM BKN012 M02/M04 A3036 RMK SC6 SLP312
Loading
Personal Weather Stations






























Interactive Weather Map New forecast layout! Learn more

10-Day Weather Forecast

Advertisements
Track Severe Weather on mobile